Hauptseite
METAR-TAF:

METAR-TAF

Flughäfen :

Blackpool Airport

Blackpool, England

Breite: 53-46N, Länge: 003-02W, Höhe: 10 m

Beobachtung

Neuester Wetterbericht von vor 5 Stunden und 35 Minuten, um 20:50 UTC
Wind 15 kt aus Ost
Temperatur 8°C
Luftfeuchtigkeit 81%
Luftdruck 1028 hPa
Sichtweite 10 km oder mehr
keine Wolken unter 1500 m und keine Kumulonimbus oder Gewitterwolken

METAR: EGNH 172050Z 08015KT CAVOK 08/05 Q1028

Zeit: 02:25 (02:25 UTC)

Prognose

Neuester Wetterbericht von vor 9 Stunden und 28 Minuten, um 16:57 UTC
Gültige Prognose vom 17 um 18 UTC bis 17 um 21 UTC
Wind 9 kt aus Ost/Südost
Sichtweite 10 km oder mehr
Leicht bewölkt in der Höhe von 2000 ft

TAF: EGNH 171657Z 1718/1721 12009KT 9999 FEW020

Wetterbeobachtungen und Prognosen von mehr als 4000 Flughäfen (METAR und TAF Bericht).

Die verfügbaren Stationen werden durch gelbe und rote Markierungen auf der Karte dargestellt.

Führen Sie die Maus auf sie, um den Namen der Station zu sehen.

Darauf klicken, um die Beobachtung von Wetterbeobachtungen und Prognosen zu sehen.

Um die Karte zu ändern : klicken Sie auf den grünen Tasten mit einem schwarzen Kreuz Zum Vergrößern, auf den grünen Button mit einem Gedankenstrich zu verkleinern, oder auf die grünen Pfeile für benachbarte Karten.


METAR-TAF: